Portada
METAR-TAF:

METAR-TAF

Aeropuertos :

Aeropuerto Internacional de Carrasco

Montevideo, Uruguay

latitud: 34-50S, longitud: 056-00W, altitud: 32 m

Observación

El informe se hizo hace 43 minutos, a las 00:00 UTC
Viento 9 kt del noreste
Temperatura 13°C
Humedad 72%
Presión 1021 hPa
Visibilidad 10 km o más
sin nubes por debajo de 1500 m y sin presencia de cumulonimbus.

METAR: SUMU 180000Z 05009KT CAVOK 13/08 Q1021 NOSIG

Hora: 21:43 (00:43 UTC)

Pronóstico

El informe se hizo hace 1 hora y 13 minutos, a las 23:30 UTC
Pronóstico válido del 18 a las 00 UTC al 18 a las 24 UTC
Viento 8 kt del noreste
Visibilidad 10 km o más
sin nubes por debajo de 1500 m y sin presencia de cumulonimbus.

TAF: SUMU 172330Z 1800/1824 04008KT CAVOK TX17/1818Z TN07/1810Z

Observaciones y pronósticos meteorológicos de más de 4000 aeropuertos (mensajes METAR y TAF).

Los puntos amarillos y rojos representan las estaciones disponibles.

Ponga el ratón en el punto deseado para ver el nombre de la estación.

Haga clic para ver las observaciones y los pronósticos meteorológicos.

Para cambiar el mapa : haga clic en los botones verdes con una cruz de color negro para hacer un zoom, en el botón verde con un guión para alejar o en las flechas verdes para mapas adyacentes.


METAR-TAF: